Princeton, Missouri
Current Conditions -  °F | °C
As of 2:53 PM on Sunday 21 Dec 2014 (Local Time) from KLWD Reporting Station
Overcast Overcast  
Wind Chill: 34°   Ceiling: 1600
Heat Index: 41°   Visibility: 10mi
Dew Point: 38°   Wind: 13mph
Humidity: 89%   Direction: 160°SSE
Pressure: 29.83"   Gusts: 18mph
Location:  40.4°N, 93.58°W
Report Text: KLWD 212053Z AUTO 16011G16KT 10SM BKN016 OVC027 05/03 A2983 RMK AO2 SLP108 60001 T00500033 56029
Loading
Personal Weather Stations






























Interactive Weather Map New forecast layout! Learn more

10-Day Weather Forecast

Advertisements
Track Severe Weather on mobile